createdAt,value
2023-02-04T00:00:10.268Z,19.13
2023-02-04T00:02:38.862Z,18.52
2023-02-04T00:05:06.288Z,20.48
2023-02-04T00:07:33.673Z,31.52
2023-02-04T00:10:00.874Z,24.15
2023-02-04T00:12:28.169Z,16.85
2023-02-04T00:14:55.489Z,22.20
2023-02-04T00:17:22.775Z,22.50
2023-02-04T00:19:50.021Z,16.25
2023-02-04T00:22:19.545Z,34.92
2023-02-04T00:24:49.905Z,21.65
2023-02-04T00:27:17.608Z,23.85
2023-02-04T00:29:44.841Z,13.60
2023-02-04T00:32:12.281Z,41.15
2023-02-04T00:34:39.647Z,24.60
2023-02-04T00:37:06.928Z,24.40
2023-02-04T00:39:34.153Z,25.50
2023-02-04T00:42:01.420Z,21.33
2023-02-04T00:44:28.609Z,16.70
2023-02-04T00:46:55.793Z,24.33
2023-02-04T00:49:23.020Z,25.05
2023-02-04T00:51:51.347Z,27.80
2023-02-04T00:54:18.645Z,28.02
2023-02-04T00:56:45.900Z,24.45
2023-02-04T00:59:13.106Z,23.40
2023-02-04T01:01:40.396Z,36.95
2023-02-04T01:04:07.698Z,32.60
2023-02-04T01:06:35.191Z,24.80
2023-02-04T01:09:02.431Z,22.25
2023-02-04T01:11:30.142Z,33.63
2023-02-04T01:13:57.154Z,23.60
2023-02-04T01:16:24.230Z,27.33
2023-02-04T01:18:51.379Z,24.95
2023-02-04T01:21:18.663Z,32.13
2023-02-04T01:23:45.666Z,28.23
2023-02-04T01:26:12.726Z,28.35
2023-02-04T01:28:39.697Z,26.42
2023-02-04T01:31:06.817Z,18.45
2023-02-04T01:33:33.844Z,20.17
2023-02-04T01:36:00.852Z,26.65
2023-02-04T01:38:27.890Z,35.58
2023-02-04T01:40:55.095Z,24.33
2023-02-04T01:43:23.096Z,26.08
2023-02-04T01:45:50.529Z,23.42
2023-02-04T01:48:20.376Z,27.02
2023-02-04T01:50:48.468Z,23.95
2023-02-04T01:53:17.253Z,18.08
2023-02-04T01:55:44.316Z,32.83
2023-02-04T01:58:12.975Z,25.92
2023-02-04T02:00:41.022Z,26.45
2023-02-04T02:03:10.812Z,26.67
2023-02-04T02:05:39.903Z,29.42
2023-02-04T02:08:07.998Z,25.20
2023-02-04T02:10:36.273Z,22.73
2023-02-04T02:13:03.915Z,26.83
2023-02-04T02:15:30.922Z,22.52
2023-02-04T02:17:58.177Z,25.30
2023-02-04T02:20:26.452Z,22.52
2023-02-04T02:22:58.998Z,24.23
2023-02-04T02:25:26.018Z,30.77
2023-02-04T02:27:53.289Z,20.33
2023-02-04T02:30:23.543Z,26.83
2023-02-04T02:32:51.448Z,19.52
2023-02-04T02:35:18.984Z,22.13
2023-02-04T02:37:46.030Z,18.15
2023-02-04T02:40:13.627Z,19.73
2023-02-04T02:42:40.700Z,18.42
2023-02-04T02:45:11.999Z,21.67
2023-02-04T02:47:39.005Z,18.58
2023-02-04T02:50:06.164Z,29.05
2023-02-04T02:52:33.239Z,36.42
2023-02-04T02:55:00.243Z,20.63
2023-02-04T02:57:27.264Z,24.63
2023-02-04T02:59:54.297Z,22.67
2023-02-04T03:02:23.894Z,22.45
2023-02-04T03:04:54.172Z,9.13
2023-02-04T03:07:22.113Z,18.13
2023-02-04T03:09:49.396Z,19.70
2023-02-04T03:12:16.491Z,21.95
2023-02-04T03:14:43.513Z,21.10
2023-02-04T03:17:11.253Z,23.35
2023-02-04T03:19:38.414Z,20.48
2023-02-04T03:22:05.888Z,19.05
2023-02-04T03:24:34.378Z,25.42
2023-02-04T03:27:01.750Z,25.15
2023-02-04T03:29:29.855Z,19.00
2023-02-04T03:31:59.853Z,24.80
2023-02-04T03:34:26.949Z,14.23
2023-02-04T03:36:53.956Z,22.77
2023-02-04T03:39:21.009Z,23.42
2023-02-04T03:41:48.014Z,27.73
2023-02-04T03:44:15.246Z,24.70
2023-02-04T03:46:42.201Z,19.05
2023-02-04T03:49:09.189Z,21.33
2023-02-04T03:51:36.206Z,24.75
2023-02-04T03:54:03.973Z,27.73
2023-02-04T03:56:30.976Z,15.02
2023-02-04T03:58:57.965Z,16.48
2023-02-04T04:01:25.125Z,18.92
2023-02-04T04:03:52.156Z,17.60
2023-02-04T04:06:21.640Z,20.42
2023-02-04T04:08:48.665Z,17.58
2023-02-04T04:11:16.039Z,19.40
2023-02-04T04:13:43.073Z,20.85
2023-02-04T04:16:10.184Z,28.98
2023-02-04T04:18:37.289Z,21.83
2023-02-04T04:21:04.448Z,25.30
2023-02-04T04:23:31.480Z,17.45
2023-02-04T04:25:58.530Z,19.67
2023-02-04T04:28:25.558Z,24.35
2023-02-04T04:30:52.634Z,18.42
2023-02-04T04:33:19.661Z,20.75
2023-02-04T04:35:47.961Z,19.80
2023-02-04T04:38:14.991Z,16.13
2023-02-04T04:40:41.985Z,17.45
2023-02-04T04:43:09.025Z,19.88
2023-02-04T04:45:36.021Z,24.73
2023-02-04T04:48:03.085Z,19.77
2023-02-04T04:50:30.329Z,20.85
2023-02-04T04:52:57.591Z,19.08
2023-02-04T04:55:24.571Z,29.67
2023-02-04T04:57:51.736Z,16.88
2023-02-04T05:00:20.406Z,21.52
2023-02-04T05:02:49.999Z,24.98
2023-02-04T05:05:17.022Z,20.08
2023-02-04T05:07:44.071Z,30.35
2023-02-04T05:10:11.234Z,34.28
2023-02-04T05:12:38.428Z,24.27
2023-02-04T05:15:05.742Z,19.30
2023-02-04T05:17:32.763Z,29.25
2023-02-04T05:19:59.734Z,24.55
2023-02-04T05:22:26.701Z,20.77
2023-02-04T05:24:53.671Z,36.38
2023-02-04T05:27:20.665Z,34.53
2023-02-04T05:29:47.732Z,25.60
2023-02-04T05:32:14.839Z,26.20
2023-02-04T05:34:42.029Z,23.10
2023-02-04T05:37:09.022Z,22.73
2023-02-04T05:39:36.010Z,29.95
2023-02-04T05:42:03.062Z,25.00
2023-02-04T05:44:30.051Z,20.45
2023-02-04T05:46:57.063Z,25.05
2023-02-04T05:49:24.714Z,22.15
2023-02-04T05:51:51.689Z,23.10
2023-02-04T05:54:20.430Z,27.67
2023-02-04T05:56:48.025Z,25.65
2023-02-04T05:59:15.120Z,31.92
2023-02-04T06:01:42.249Z,27.65
2023-02-04T06:04:09.340Z,34.20
2023-02-04T06:06:36.491Z,21.88
2023-02-04T06:09:03.607Z,24.25
2023-02-04T06:11:30.649Z,35.65
2023-02-04T06:13:57.714Z,32.58
2023-02-04T06:16:24.778Z,27.60
2023-02-04T06:18:51.821Z,28.95
2023-02-04T06:21:19.119Z,29.70
2023-02-04T06:23:46.524Z,27.58
2023-02-04T06:26:13.711Z,23.30
2023-02-04T06:28:47.377Z,32.90
2023-02-04T06:31:14.568Z,37.47
2023-02-04T06:33:41.642Z,25.20
2023-02-04T06:36:08.859Z,19.38
2023-02-04T06:38:35.836Z,32.30
2023-02-04T06:41:02.960Z,22.30
2023-02-04T06:46:09.545Z,28.63
2023-02-04T06:48:36.581Z,27.30
2023-02-04T06:51:03.699Z,25.92
2023-02-04T06:53:30.668Z,28.67
2023-02-04T06:56:00.479Z,18.67
2023-02-04T07:01:06.916Z,30.55
2023-02-04T07:03:34.033Z,23.60
2023-02-04T07:06:01.074Z,23.92
2023-02-04T07:08:28.141Z,27.52
2023-02-04T07:10:55.186Z,32.17
2023-02-04T07:13:37.586Z,26.73
2023-02-04T07:16:07.531Z,23.23
2023-02-04T07:18:36.602Z,20.88
2023-02-04T07:21:03.633Z,27.27
2023-02-04T07:23:30.630Z,29.88
2023-02-04T07:25:59.356Z,23.60
2023-02-04T07:34:05.056Z,25.58
2023-02-04T07:36:32.112Z,33.83
2023-02-04T07:38:59.153Z,33.05
2023-02-04T07:41:26.116Z,26.75
2023-02-04T07:43:53.107Z,30.40
2023-02-04T07:49:01.413Z,22.63
2023-02-04T07:51:28.428Z,25.63
2023-02-04T07:53:58.476Z,27.20
2023-02-04T07:56:25.463Z,31.17
2023-02-04T07:58:52.462Z,25.95
2023-02-04T08:03:52.869Z,29.60
2023-02-04T08:06:19.998Z,33.95
2023-02-04T08:08:46.992Z,33.80
2023-02-04T08:11:14.080Z,33.58
2023-02-04T08:13:41.177Z,33.97
2023-02-04T08:18:49.361Z,27.13
2023-02-04T08:21:17.851Z,29.20
2023-02-04T08:23:45.832Z,25.38
2023-02-04T08:26:12.832Z,23.15
2023-02-04T08:28:39.852Z,29.23
2023-02-04T08:33:40.266Z,27.75
2023-02-04T08:36:07.946Z,33.00
2023-02-04T08:38:35.312Z,20.30
2023-02-04T08:41:02.548Z,24.05
2023-02-04T08:43:30.255Z,26.15
2023-02-04T08:48:37.370Z,26.08
2023-02-04T08:51:04.510Z,29.40
2023-02-04T08:53:31.521Z,33.40
2023-02-04T08:55:58.522Z,28.88
2023-02-04T08:58:25.849Z,26.42
2023-02-04T09:00:53.127Z,30.10
2023-02-04T09:03:20.528Z,38.92
2023-02-04T09:05:47.677Z,26.42
2023-02-04T09:08:15.933Z,29.08
2023-02-04T09:10:42.962Z,32.50
2023-02-04T09:13:13.221Z,38.63
2023-02-04T09:15:40.344Z,40.55
2023-02-04T09:18:18.791Z,38.40
2023-02-04T09:20:46.140Z,33.40
2023-02-04T09:23:13.464Z,29.00
2023-02-04T09:25:41.020Z,26.10
2023-02-04T09:28:11.298Z,28.40
2023-02-04T09:30:39.062Z,32.15
2023-02-04T09:33:06.156Z,40.78
2023-02-04T09:35:33.176Z,31.50
2023-02-04T09:38:01.977Z,41.92
2023-02-04T09:40:31.757Z,42.25
2023-02-04T09:42:59.804Z,42.60
2023-02-04T09:45:28.145Z,28.48
2023-02-04T09:47:55.854Z,39.35
2023-02-04T09:50:24.590Z,29.98
2023-02-04T09:52:55.888Z,38.08
2023-02-04T09:55:25.716Z,34.58
2023-02-04T09:57:52.714Z,34.33
2023-02-04T10:00:24.591Z,38.85
2023-02-04T10:02:51.915Z,34.30
2023-02-04T10:05:23.049Z,33.75
2023-02-04T10:07:50.059Z,36.17
2023-02-04T10:10:18.555Z,39.83
2023-02-04T10:12:46.230Z,34.63
2023-02-04T10:15:19.313Z,33.72
2023-02-04T10:17:47.117Z,30.60
2023-02-04T10:20:17.753Z,37.25
2023-02-04T10:25:16.224Z,32.58
2023-02-04T10:27:53.615Z,34.95
2023-02-04T10:30:22.210Z,34.92
2023-02-04T10:32:49.353Z,36.42
2023-02-04T10:35:17.657Z,36.40
2023-02-04T10:37:44.846Z,30.00
2023-02-04T10:40:26.561Z,29.95
2023-02-04T10:42:53.611Z,36.78
2023-02-04T10:45:27.424Z,37.63
2023-02-04T10:47:55.456Z,28.38
2023-02-04T10:50:24.472Z,40.72
2023-02-04T10:53:15.968Z,36.45
2023-02-04T10:55:43.708Z,42.80
2023-02-04T10:58:12.813Z,31.90
2023-02-04T11:00:39.823Z,32.40
2023-02-04T11:03:16.127Z,44.70
2023-02-04T11:05:43.170Z,48.75
2023-02-04T11:08:19.600Z,37.83
2023-02-04T11:10:46.712Z,33.25
2023-02-04T11:13:22.399Z,35.28
2023-02-04T11:15:51.086Z,38.45
2023-02-04T11:18:21.117Z,30.23
2023-02-04T11:20:52.043Z,35.08
2023-02-04T11:23:32.107Z,39.97
2023-02-04T11:26:07.575Z,30.63
2023-02-04T11:28:46.736Z,41.70
2023-02-04T11:31:22.747Z,36.60
2023-02-04T11:33:51.047Z,33.22
2023-02-04T11:36:18.510Z,28.35
2023-02-04T11:38:47.207Z,36.08
2023-02-04T11:41:25.804Z,37.35
2023-02-04T11:44:04.158Z,36.30
2023-02-04T11:46:31.173Z,38.78
2023-02-04T11:48:59.600Z,39.60
2023-02-04T11:51:34.293Z,25.05
2023-02-04T11:54:01.350Z,29.88
2023-02-04T11:56:29.391Z,26.98
2023-02-04T11:58:57.724Z,29.42
2023-02-04T12:01:26.068Z,37.10
2023-02-04T12:04:03.090Z,45.38
2023-02-04T12:06:31.846Z,36.10
2023-02-04T12:09:06.720Z,36.58
2023-02-04T12:11:33.996Z,30.73
2023-02-04T12:14:07.096Z,29.95
2023-02-04T12:16:47.568Z,33.10
2023-02-04T12:19:15.019Z,29.45
2023-02-04T12:21:42.169Z,41.55
2023-02-04T12:24:09.178Z,27.42
2023-02-04T12:26:36.165Z,33.95
2023-02-04T12:29:05.508Z,35.13
2023-02-04T12:31:33.596Z,42.58
2023-02-04T12:34:00.696Z,33.75
2023-02-04T12:36:29.583Z,34.58
2023-02-04T12:38:58.687Z,23.30
2023-02-04T12:41:28.374Z,35.72
2023-02-04T12:43:55.605Z,37.27
2023-02-04T12:46:24.126Z,31.77
2023-02-04T12:48:51.701Z,36.60
2023-02-04T12:51:20.866Z,35.63
2023-02-04T12:53:48.322Z,29.23
2023-02-04T12:56:15.870Z,34.97
2023-02-04T12:58:42.847Z,37.70
2023-02-04T13:01:09.949Z,33.00
2023-02-04T13:03:36.971Z,27.33
2023-02-04T13:06:04.237Z,34.83
2023-02-04T13:08:31.279Z,38.42
2023-02-04T13:10:58.363Z,28.25
2023-02-04T13:13:25.577Z,27.25
2023-02-04T13:15:52.619Z,33.85
2023-02-04T13:18:19.608Z,28.70
2023-02-04T13:20:46.646Z,28.58
2023-02-04T13:23:14.076Z,24.90
2023-02-04T13:25:41.503Z,27.50
2023-02-04T13:28:08.484Z,26.70
2023-02-04T13:30:35.649Z,28.52
2023-02-04T13:33:03.704Z,46.78
2023-02-04T13:35:31.114Z,32.38
2023-02-04T13:37:58.317Z,41.05
2023-02-04T13:40:25.308Z,29.52
2023-02-04T13:42:52.327Z,27.77
2023-02-04T13:45:19.443Z,26.58
2023-02-04T13:47:47.821Z,33.33
2023-02-04T13:50:15.323Z,30.85
2023-02-04T13:52:42.281Z,29.33
2023-02-04T13:55:09.432Z,34.00
2023-02-04T13:57:37.752Z,32.35
2023-02-04T14:00:06.733Z,29.63
2023-02-04T14:02:33.958Z,28.95
2023-02-04T14:05:01.604Z,23.30
2023-02-04T14:07:30.318Z,28.45
2023-02-04T14:09:57.346Z,29.42
2023-02-04T14:12:24.318Z,27.20
2023-02-04T14:14:51.472Z,35.40
2023-02-04T14:17:18.485Z,31.90
2023-02-04T14:19:45.520Z,32.42
2023-02-04T14:22:13.128Z,37.92
2023-02-04T14:24:42.499Z,26.05
2023-02-04T14:27:09.974Z,30.00
2023-02-04T14:29:37.087Z,29.85
2023-02-04T14:32:04.213Z,31.20
2023-02-04T14:34:31.291Z,29.35
2023-02-04T14:36:58.478Z,33.13
2023-02-04T14:39:25.502Z,28.25
2023-02-04T14:41:52.728Z,21.42
2023-02-04T14:46:48.060Z,21.15
2023-02-04T14:49:15.672Z,19.77
2023-02-04T14:51:42.980Z,23.02
2023-02-04T14:54:10.113Z,20.10
2023-02-04T14:56:37.124Z,22.95
2023-02-04T14:59:04.199Z,24.63
2023-02-04T15:01:31.678Z,18.95
2023-02-04T15:03:58.699Z,24.55
2023-02-04T15:06:25.733Z,29.73
2023-02-04T15:08:53.025Z,22.48
2023-02-04T15:11:20.087Z,22.83
2023-02-04T15:13:47.125Z,23.40
2023-02-04T15:16:14.803Z,27.92
2023-02-04T15:18:45.194Z,31.70
2023-02-04T15:21:13.044Z,29.05
2023-02-04T15:23:40.449Z,29.45
2023-02-04T15:26:09.967Z,27.25
2023-02-04T15:28:37.225Z,27.63
2023-02-04T15:31:05.187Z,25.90
2023-02-04T15:33:32.682Z,25.58
2023-02-04T15:35:59.676Z,26.83
2023-02-04T15:38:26.694Z,29.27
2023-02-04T15:40:53.730Z,34.40
2023-02-04T15:43:20.722Z,25.60
2023-02-04T15:45:54.944Z,28.65
2023-02-04T15:48:23.966Z,25.77
2023-02-04T15:50:51.336Z,26.38
2023-02-04T15:53:18.530Z,28.10
2023-02-04T15:55:45.759Z,30.15
2023-02-04T15:58:13.082Z,26.33
2023-02-04T16:00:43.683Z,29.52
2023-02-04T16:05:37.546Z,26.67
2023-02-04T16:08:04.624Z,27.98
2023-02-04T16:10:31.882Z,39.83
2023-02-04T16:12:59.861Z,36.40
2023-02-04T16:15:26.880Z,24.65
2023-02-04T16:17:55.984Z,25.73
2023-02-04T16:20:24.704Z,27.67
2023-02-04T16:22:51.670Z,32.95
2023-02-04T16:25:18.754Z,30.85
2023-02-04T16:27:45.854Z,27.73
2023-02-04T16:30:15.914Z,30.90
2023-02-04T16:32:42.934Z,36.47
2023-02-04T16:35:10.169Z,30.08
2023-02-04T16:37:37.658Z,25.15
2023-02-04T16:40:05.674Z,29.75
2023-02-04T16:42:32.701Z,25.27
2023-02-04T16:44:59.821Z,34.55
2023-02-04T16:47:27.165Z,30.00
2023-02-04T16:49:58.963Z,23.05
2023-02-04T16:52:25.933Z,24.55
2023-02-04T16:54:52.943Z,34.88
2023-02-04T16:57:19.954Z,23.65
2023-02-04T16:59:47.022Z,33.25
2023-02-04T17:02:15.339Z,33.40
2023-02-04T17:04:42.366Z,23.33
2023-02-04T17:07:09.399Z,24.45
2023-02-04T17:09:37.002Z,22.88
2023-02-04T17:12:04.227Z,29.65
2023-02-04T17:14:31.354Z,30.00
2023-02-04T17:16:58.409Z,22.20
2023-02-04T17:19:25.453Z,35.80
2023-02-04T17:21:52.478Z,24.38
2023-02-04T17:24:19.552Z,29.90
2023-02-04T17:26:46.545Z,25.27
2023-02-04T17:29:17.129Z,25.13
2023-02-04T17:34:11.414Z,30.13
2023-02-04T17:36:38.794Z,25.35
2023-02-04T17:39:06.046Z,22.33
2023-02-04T17:41:33.023Z,35.20
2023-02-04T17:44:00.206Z,48.20
2023-02-04T17:46:35.042Z,34.78
2023-02-04T17:49:02.497Z,34.92
2023-02-04T17:51:29.529Z,34.33
2023-02-04T17:53:56.569Z,35.13
2023-02-04T17:56:25.146Z,39.75
2023-02-04T17:58:52.164Z,40.47
2023-02-04T18:01:21.746Z,38.83
2023-02-04T18:03:49.583Z,43.33
2023-02-04T18:06:26.923Z,35.67
2023-02-04T18:08:56.675Z,43.70
2023-02-04T18:11:27.987Z,38.72
2023-02-04T18:13:56.306Z,32.22
2023-02-04T18:16:25.876Z,31.63
2023-02-04T18:18:54.890Z,26.37
2023-02-04T18:21:26.593Z,19.75
2023-02-04T18:23:57.216Z,28.55
2023-02-04T18:28:51.241Z,26.80
2023-02-04T18:31:36.393Z,28.90
2023-02-04T18:34:11.796Z,31.30
2023-02-04T18:36:38.986Z,41.55
2023-02-04T18:39:18.146Z,33.35
2023-02-04T18:41:48.433Z,33.30
2023-02-04T18:44:26.716Z,35.90
2023-02-04T18:46:54.846Z,22.25
2023-02-04T18:49:21.832Z,27.33
2023-02-04T18:51:48.881Z,31.15
2023-02-04T18:54:29.545Z,33.72
2023-02-04T18:59:25.431Z,30.05
2023-02-04T19:01:52.544Z,30.83
2023-02-04T19:04:23.740Z,28.42
2023-02-04T19:06:52.972Z,26.75
2023-02-04T19:09:26.982Z,30.40
2023-02-04T19:11:55.505Z,34.25
2023-02-04T19:14:37.314Z,34.60
2023-02-04T19:17:16.949Z,30.88
2023-02-04T19:19:45.165Z,33.20
2023-02-04T19:22:15.429Z,41.33
2023-02-04T19:24:42.604Z,27.75
2023-02-04T19:27:30.524Z,39.28
2023-02-04T19:29:59.697Z,42.22
2023-02-04T19:32:52.290Z,40.60
2023-02-04T19:35:20.960Z,37.00
2023-02-04T19:37:54.870Z,40.22
2023-02-04T19:40:40.114Z,42.92
2023-02-04T19:43:16.972Z,37.00
2023-02-04T19:45:45.096Z,41.45
2023-02-04T19:48:22.881Z,35.00
2023-02-04T19:50:52.835Z,33.05
2023-02-04T19:53:23.731Z,35.67
2023-02-04T19:55:51.652Z,45.22
2023-02-04T19:58:20.355Z,31.23
2023-02-04T20:00:51.340Z,43.10
2023-02-04T20:03:30.935Z,36.60
2023-02-04T20:05:59.802Z,37.53
2023-02-04T20:08:41.264Z,31.05
2023-02-04T20:11:27.049Z,47.65
2023-02-04T20:13:56.141Z,35.35
2023-02-04T20:18:56.284Z,36.25
2023-02-04T20:21:23.247Z,49.17
2023-02-04T20:23:50.250Z,43.42
2023-02-04T20:26:17.273Z,46.83
2023-02-04T20:28:45.705Z,36.30
2023-02-04T20:31:26.569Z,44.80
2023-02-04T20:33:54.917Z,37.30
2023-02-04T20:36:31.291Z,43.58
2023-02-04T20:39:13.822Z,36.78
2023-02-04T20:41:40.832Z,29.52
2023-02-04T20:44:20.426Z,35.88
2023-02-04T20:46:47.429Z,31.75
2023-02-04T20:49:21.637Z,32.55
2023-02-04T20:51:48.677Z,39.92
2023-02-04T20:54:19.016Z,30.42
2023-02-04T20:56:46.162Z,33.63
2023-02-04T20:59:13.191Z,39.58
2023-02-04T21:01:41.389Z,33.22
2023-02-04T21:04:27.658Z,36.58
2023-02-04T21:06:55.567Z,43.15
2023-02-04T21:09:26.412Z,38.03
2023-02-04T21:11:54.325Z,39.15
2023-02-04T21:14:21.790Z,34.72
2023-02-04T21:16:49.110Z,35.08
2023-02-04T21:19:18.000Z,43.25
2023-02-04T21:21:45.246Z,34.67
2023-02-04T21:24:12.285Z,47.17
2023-02-04T21:26:39.567Z,46.55
2023-02-04T21:29:07.074Z,39.80
2023-02-04T21:31:34.260Z,36.20
2023-02-04T21:34:01.327Z,37.28
2023-02-04T21:36:28.407Z,31.65
2023-02-04T21:38:58.710Z,36.20
2023-02-04T21:41:25.708Z,39.15
2023-02-04T21:43:53.665Z,44.13
2023-02-04T21:46:20.935Z,48.20
2023-02-04T21:48:48.055Z,37.88
2023-02-04T21:51:18.066Z,31.92
2023-02-04T21:53:45.188Z,41.03
2023-02-04T21:56:12.253Z,37.83
2023-02-04T21:58:39.344Z,39.05
2023-02-04T22:01:07.062Z,39.53
2023-02-04T22:03:34.157Z,40.70
2023-02-04T22:06:01.218Z,40.67
2023-02-04T22:08:28.276Z,45.33
2023-02-04T22:10:55.525Z,41.33
2023-02-04T22:13:22.552Z,38.17
2023-02-04T22:15:49.618Z,45.58
2023-02-04T22:18:16.700Z,41.78
2023-02-04T22:20:43.743Z,36.28
2023-02-04T22:23:10.729Z,43.35
2023-02-04T22:25:37.695Z,33.00
2023-02-04T22:28:04.896Z,48.92
2023-02-04T22:30:31.953Z,40.75
2023-02-04T22:33:01.546Z,49.20
2023-02-04T22:35:29.687Z,52.65
2023-02-04T22:37:59.961Z,35.88
2023-02-04T22:40:28.068Z,42.90
2023-02-04T22:42:55.122Z,29.60
2023-02-04T22:45:22.125Z,36.13
2023-02-04T22:47:50.308Z,35.17
2023-02-04T22:50:17.444Z,36.25
2023-02-04T22:52:44.565Z,40.70
2023-02-04T22:55:17.120Z,49.90
2023-02-04T22:57:44.101Z,42.85
2023-02-04T23:00:11.506Z,40.83
2023-02-04T23:02:38.549Z,32.50
2023-02-04T23:05:05.967Z,39.20
2023-02-04T23:07:33.019Z,33.75
2023-02-04T23:10:00.170Z,38.63
2023-02-04T23:12:27.175Z,36.38
2023-02-04T23:14:54.171Z,38.70
2023-02-04T23:17:23.672Z,44.30
2023-02-04T23:19:50.697Z,34.40
2023-02-04T23:22:17.794Z,51.25
2023-02-04T23:24:44.973Z,50.47
2023-02-04T23:27:12.565Z,37.80
2023-02-04T23:29:40.009Z,38.47
2023-02-04T23:32:07.574Z,40.60
2023-02-04T23:34:34.715Z,37.72
2023-02-04T23:37:01.756Z,46.20
2023-02-04T23:39:31.051Z,37.97
2023-02-04T23:41:58.085Z,32.33
2023-02-04T23:44:25.156Z,34.08
2023-02-04T23:46:52.201Z,33.10
2023-02-04T23:49:19.233Z,47.92
2023-02-04T23:51:46.299Z,42.38
2023-02-04T23:54:13.413Z,32.67
2023-02-04T23:56:40.536Z,32.97
2023-02-04T23:59:08.297Z,45.60
